Time;durP1;ratioP1;P1;durP2;ratioP2;P2;SDS_P1;SDS_P2;PMS_P1;PMS_P2;Temp;Humidity;BMP_temperature;BMP_pressure;BME280_temperature;BME280_humidity;BME280_pressure;Samples;Min_cycle;Max_cycle;Signal;HPM_P1;HPM_P2
2022/12/08 00:00:51;;;;;;;35.22;19.25;;;;;;;-0.36;90.55;95625.19;2041289;29;20058;-55
2022/12/08 00:01:52;;;;;;;33.65;19.17;;;;;;;-0.38;90.70;95631.16;2042290;29;20387;-57
2022/12/08 00:02:53;;;;;;;36.38;19.48;;;;;;;-0.38;90.89;95633.69;2042001;29;20031;-57
2022/12/08 00:03:55;;;;;;;32.60;18.88;;;;;;;-0.37;90.91;95631.16;2041117;29;20048;-57
2022/12/08 00:10:21;;;;;;;34.58;19.25;;;;;;;-0.31;91.10;95628.53;2041643;29;20047;-57
2022/12/08 00:11:22;;;;;;;34.22;19.30;;;;;;;-0.28;90.13;95630.19;2042098;29;20044;-58
2022/12/08 00:12:23;;;;;;;35.58;20.13;;;;;;;-0.31;90.89;95623.41;2041390;29;20063;-57
2022/12/08 00:13:24;;;;;;;39.60;20.25;;;;;;;-0.32;91.08;95624.28;2041598;29;20059;-57
2022/12/08 00:14:30;;;;;;;32.47;19.30;;;;;;;-0.30;91.03;95629.38;2041235;29;20051;-57
2022/12/08 00:15:31;;;;;;;35.35;20.90;;;;;;;-0.35;90.84;95624.31;2041696;29;20062;-57
2022/12/08 00:16:32;;;;;;;37.30;19.92;;;;;;;-0.33;90.90;95624.28;2041870;29;20051;-59
2022/12/08 00:17:33;;;;;;;36.55;20.13;;;;;;;-0.33;91.18;95627.69;2041433;29;20047;-60
2022/12/08 00:18:35;;;;;;;38.83;21.25;;;;;;;-0.29;90.71;95623.41;2041507;29;20059;-60
2022/12/08 00:19:37;;;;;;;35.42;20.58;;;;;;;-0.26;90.66;95624.22;2041252;29;20055;-60
2022/12/08 00:20:38;;;;;;;34.15;19.83;;;;;;;-0.25;90.43;95623.34;2041292;29;20052;-60
2022/12/08 00:21:39;;;;;;;35.35;19.55;;;;;;;-0.24;90.37;95619.94;2041964;29;20044;-57
2022/12/08 00:22:41;;;;;;;35.15;20.00;;;;;;;-0.22;90.30;95627.56;2041664;29;20056;-57
2022/12/08 00:23:42;;;;;;;35.67;20.73;;;;;;;-0.32;90.61;95610.66;2041383;29;20059;-57
2022/12/08 00:24:45;;;;;;;34.33;18.85;;;;;;;-0.23;90.05;95618.25;2041762;29;20074;-57
2022/12/08 00:25:46;;;;;;;35.92;19.85;;;;;;;-0.23;90.09;95624.19;2041716;29;20102;-57
2022/12/08 00:26:47;;;;;;;34.50;19.17;;;;;;;-0.26;89.98;95621.66;2041288;29;20051;-58
2022/12/08 00:27:48;;;;;;;37.65;19.90;;;;;;;-0.26;90.03;95620.84;2041117;29;20055;-58
2022/12/08 00:28:49;;;;;;;36.83;19.70;;;;;;;-0.29;90.34;95613.22;2040246;29;20479;-58
2022/12/08 00:29:50;;;;;;;36.63;21.15;;;;;;;-0.34;91.13;95608.16;2040499;29;20051;-58
2022/12/08 00:30:51;;;;;;;35.97;20.50;;;;;;;-0.28;90.19;95615.72;2041687;29;20047;-58
2022/12/08 00:31:52;;;;;;;35.53;20.13;;;;;;;-0.29;90.50;95611.50;2041617;29;20480;-61
2022/12/08 00:32:54;;;;;;;34.10;19.25;;;;;;;-0.25;90.08;95613.13;2041436;29;20112;-60
2022/12/08 00:33:55;;;;;;;32.80;20.15;;;;;;;-0.26;90.21;95606.34;2041311;29;20058;-61
2022/12/08 00:34:56;;;;;;;36.15;19.30;;;;;;;-0.24;89.81;95616.56;2041719;29;20044;-62
2022/12/08 00:35:57;;;;;;;34.65;19.45;;;;;;;-0.24;90.70;95609.75;2041745;29;20043;-61
2022/12/08 00:36:58;;;;;;;36.10;21.00;;;;;;;-0.26;90.40;95606.34;2041416;29;20052;-61
2022/12/08 00:37:59;;;;;;;37.08;20.45;;;;;;;-0.24;90.56;95607.19;2041177;29;20043;-62
2022/12/08 00:39:00;;;;;;;35.58;19.83;;;;;;;-0.22;90.70;95604.59;2041616;29;20419;-61
2022/12/08 00:40:01;;;;;;;36.88;20.98;;;;;;;-0.20;90.15;95609.69;2041530;29;20059;-61
2022/12/08 00:41:05;;;;;;;36.00;19.73;;;;;;;-0.20;90.11;95597.78;2041206;29;20480;-61
2022/12/08 00:42:13;;;;;;;33.28;19.10;;;;;;;-0.20;89.93;95599.50;2041580;29;20044;-63
2022/12/08 00:43:14;;;;;;;35.17;20.05;;;;;;;-0.20;90.36;95604.59;2041776;29;20046;-61
2022/12/08 00:44:17;;;;;;;32.10;18.65;;;;;;;-0.23;89.99;95601.22;2041009;29;20071;-62
2022/12/08 00:45:18;;;;;;;35.08;19.90;;;;;;;-0.25;90.01;95607.19;2041659;29;20412;-62
2022/12/08 00:46:19;;;;;;;35.25;19.65;;;;;;;-0.21;90.26;95603.75;2041649;29;20048;-61
2022/12/08 00:47:21;;;;;;;33.10;19.75;;;;;;;-0.21;90.41;95611.41;2041710;29;20043;-62
2022/12/08 00:48:22;;;;;;;33.00;19.65;;;;;;;-0.24;90.61;95599.53;2041567;29;20051;-61
2022/12/08 00:49:23;;;;;;;38.72;20.25;;;;;;;-0.23;90.23;95603.75;2041124;29;20503;-61
2022/12/08 00:50:24;;;;;;;36.53;20.17;;;;;;;-0.31;90.23;95604.72;2040918;29;20044;-60
2022/12/08 00:51:25;;;;;;;33.28;19.30;;;;;;;-0.29;90.32;95598.75;2040920;29;20058;-62
2022/12/08 00:52:26;;;;;;;34.72;19.35;;;;;;;-0.26;90.95;95600.41;2041316;29;20051;-63
2022/12/08 00:53:27;;;;;;;34.28;19.23;;;;;;;-0.26;90.69;95602.97;2041336;29;20047;-61
2022/12/08 00:54:29;;;;;;;35.22;20.20;;;;;;;-0.23;90.54;95603.75;2040544;29;20055;-61
2022/12/08 00:55:30;;;;;;;33.55;19.90;;;;;;;-0.20;90.70;95597.78;2040012;29;20062;-62
2022/12/08 00:56:31;;;;;;;36.15;20.40;;;;;;;-0.20;90.25;95596.94;2041775;29;20361;-58
2022/12/08 00:57:32;;;;;;;33.58;18.60;;;;;;;-0.26;90.56;95603.81;2041052;29;20056;-58
2022/12/08 00:58:33;;;;;;;36.60;20.23;;;;;;;-0.28;90.14;95602.97;2041276;29;20055;-58
2022/12/08 00:59:34;;;;;;;39.15;20.83;;;;;;;-0.25;90.68;95602.94;2041484;29;20059;-59
2022/12/08 01:00:35;;;;;;;33.60;19.35;;;;;;;-0.26;89.93;95601.25;2040878;29;20055;-58
2022/12/08 01:01:36;;;;;;;35.47;20.77;;;;;;;-0.22;90.80;95594.41;2040954;29;20051;-58
2022/12/08 01:02:37;;;;;;;37.53;21.83;;;;;;;-0.24;90.20;95596.97;2041281;29;20067;-58
2022/12/08 01:03:39;;;;;;;38.22;19.80;;;;;;;-0.22;89.77;95591.84;2041604;29;20493;-58
2022/12/08 01:04:40;;;;;;;36.67;20.05;;;;;;;-0.24;90.41;95589.31;2041225;29;20079;-58
2022/12/08 01:05:41;;;;;;;36.53;19.67;;;;;;;-0.24;90.12;95599.53;2041191;29;20063;-58
2022/12/08 01:06:43;;;;;;;35.85;19.73;;;;;;;-0.22;90.42;95590.13;2041435;29;20063;-58
2022/12/08 01:07:44;;;;;;;34.05;19.35;;;;;;;-0.24;90.09;95591.88;2041691;29;20043;-57
2022/12/08 01:08:45;;;;;;;36.88;20.48;;;;;;;-0.24;90.29;95598.69;2041029;29;20051;-58
2022/12/08 01:09:46;;;;;;;33.33;19.50;;;;;;;-0.25;90.18;95597.81;2041416;29;20502;-58
2022/12/08 01:10:47;;;;;;;31.73;18.92;;;;;;;-0.21;90.25;95596.09;2041631;29;20043;-58
2022/12/08 01:11:48;;;;;;;36.78;20.52;;;;;;;-0.21;89.93;95588.44;2041645;29;20059;-58
2022/12/08 01:12:49;;;;;;;36.03;20.20;;;;;;;-0.22;89.99;95594.41;2041026;29;20376;-58
2022/12/08 01:13:50;;;;;;;35.28;19.48;;;;;;;-0.21;90.21;95591.00;2041588;29;20043;-58
2022/12/08 01:14:51;;;;;;;35.35;19.42;;;;;;;-0.19;90.29;95590.97;2041234;29;20063;-58
2022/12/08 01:15:52;;;;;;;38.42;19.92;;;;;;;-0.20;89.59;95589.28;2040891;29;20056;-58
2022/12/08 01:16:54;;;;;;;34.25;20.00;;;;;;;-0.19;90.49;95590.97;2041323;29;20044;-57
2022/12/08 01:17:55;;;;;;;32.00;18.20;;;;;;;-0.20;90.32;95591.84;2041555;29;20039;-57
2022/12/08 01:18:57;;;;;;;36.15;20.48;;;;;;;-0.17;90.43;95594.34;2041623;29;20070;-57
2022/12/08 01:19:58;;;;;;;35.30;20.20;;;;;;;-0.19;89.70;95591.81;2041039;29;20055;-57
2022/12/08 01:21:05;;;;;;;34.63;19.60;;;;;;;-0.18;90.39;95595.22;2041177;29;20054;-57
2022/12/08 01:22:06;;;;;;;35.40;18.75;;;;;;;-0.29;90.25;95593.63;2041502;29;20047;-61
2022/12/08 01:23:07;;;;;;;35.88;20.60;;;;;;;-0.34;91.15;95592.84;2041090;29;20372;-62
2022/12/08 01:24:21;;;;;;;36.30;19.63;;;;;;;-0.32;90.24;95591.13;2041145;29;20105;-62
2022/12/08 01:25:22;;;;;;;35.10;19.42;;;;;;;-0.25;90.73;95581.69;2040849;29;20055;-62
2022/12/08 01:26:23;;;;;;;37.80;20.50;;;;;;;-0.26;90.55;95583.38;2041398;29;20056;-62
2022/12/08 01:27:24;;;;;;;34.00;20.17;;;;;;;-0.27;90.76;95580.84;2041152;29;20506;-62
2022/12/08 01:28:25;;;;;;;36.38;20.27;;;;;;;-0.26;90.46;95583.38;2041711;29;20048;-62
2022/12/08 01:29:26;;;;;;;35.15;19.88;;;;;;;-0.26;90.85;95582.56;2041633;29;20050;-62
2022/12/08 01:30:27;;;;;;;32.63;19.02;;;;;;;-0.29;90.32;95577.50;2042371;29;20062;-61
2022/12/08 01:31:29;;;;;;;38.33;20.73;;;;;;;-0.30;90.78;95591.94;2042940;29;20407;-62
2022/12/08 01:32:30;;;;;;;37.13;19.80;;;;;;;-0.28;90.85;95597.03;2043310;29;20043;-62
2022/12/08 01:33:31;;;;;;;36.63;20.38;;;;;;;-0.26;90.57;95595.31;2042426;29;20063;-61
2022/12/08 01:34:32;;;;;;;34.53;20.15;;;;;;;-0.28;90.87;95592.75;2042617;29;20051;-61
2022/12/08 01:35:33;;;;;;;34.95;20.30;;;;;;;-0.33;90.82;95591.97;2042640;29;20523;-62
2022/12/08 01:36:36;;;;;;;36.55;19.98;;;;;;;-0.34;91.04;95589.44;2042878;29;20043;-62
2022/12/08 01:37:37;;;;;;;37.63;20.58;;;;;;;-0.32;90.63;95593.69;2042365;29;20058;-62
2022/12/08 01:38:38;;;;;;;34.42;19.55;;;;;;;-0.30;90.57;95594.47;2043046;29;20452;-63
2022/12/08 01:39:40;;;;;;;37.08;19.85;;;;;;;-0.29;90.08;95583.44;2042574;29;20058;-63
2022/12/08 01:40:41;;;;;;;36.35;20.17;;;;;;;-0.28;90.26;95591.91;2042831;29;20054;-62
2022/12/08 01:41:42;;;;;;;34.88;18.60;;;;;;;-0.26;90.58;95585.09;2042955;29;20051;-57
2022/12/08 01:42:43;;;;;;;34.25;19.20;;;;;;;-0.27;90.03;95594.47;2042814;29;20063;-57
2022/12/08 01:44:03;;;;;;;37.78;20.02;;;;;;;-0.27;90.82;95586.81;2042883;29;20055;-56
2022/12/08 01:45:16;;;;;;;36.58;20.08;;;;;;;-0.28;90.00;95581.72;2042457;29;20067;-56
2022/12/08 01:46:17;;;;;;;33.63;18.92;;;;;;;-0.26;90.15;95590.22;2052811;28;20402;-57
2022/12/08 01:47:19;;;;;;;37.65;20.48;;;;;;;-0.28;90.06;95585.09;2050109;29;20061;-57
2022/12/08 01:48:23;;;;;;;33.70;18.73;;;;;;;-0.27;90.58;95581.72;2042371;29;20056;-57
2022/12/08 01:49:29;;;;;;;34.13;19.45;;;;;;;-0.28;90.35;95585.09;2042143;29;20412;-58
2022/12/08 01:50:30;;;;;;;34.85;19.45;;;;;;;-0.30;90.22;95573.22;2041672;29;20059;-57
2022/12/08 01:51:32;;;;;;;34.45;19.45;;;;;;;-0.29;90.00;95580.88;2042555;29;20051;-54
2022/12/08 01:52:46;;;;;;;35.83;20.15;;;;;;;-0.29;90.59;95573.22;2041608;29;20523;-55
2022/12/08 01:53:47;;;;;;;38.13;20.05;;;;;;;-0.29;90.24;95580.03;2036132;29;20059;-55
2022/12/08 01:54:52;;;;;;;37.15;20.75;;;;;;;-0.33;90.49;95576.66;2041745;29;20427;-55
2022/12/08 01:56:23;;;;;;;36.92;20.70;;;;;;;-0.30;90.64;95571.50;2042050;29;20043;-55
2022/12/08 01:57:45;;;;;;;35.35;19.70;;;;;;;-0.28;90.21;95571.50;2026480;29;20052;-55
2022/12/08 01:58:47;;;;;;;36.95;19.17;;;;;;;-0.34;90.42;95574.97;2049764;29;20454;-55
2022/12/08 01:59:53;;;;;;;39.20;20.00;;;;;;;-0.38;90.72;95575.84;2049272;29;20070;-54
2022/12/08 02:00:54;;;;;;;38.10;20.42;;;;;;;-0.34;90.87;95571.59;2041822;29;20058;-54
2022/12/08 02:01:56;;;;;;;34.10;18.90;;;;;;;-0.32;90.42;95569.84;2041310;29;20051;-55
2022/12/08 02:03:05;;;;;;;35.53;18.92;;;;;;;-0.35;90.55;95569.88;2049133;29;20050;-55
2022/12/08 02:04:06;;;;;;;33.38;19.35;;;;;;;-0.30;90.36;95566.41;2041754;29;20060;-54
2022/12/08 02:05:07;;;;;;;35.83;19.83;;;;;;;-0.34;90.61;95571.59;2042809;29;20495;-54
2022/12/08 02:06:08;;;;;;;34.60;19.30;;;;;;;-0.34;90.33;95562.22;2042408;29;20074;-55
2022/12/08 02:07:09;;;;;;;39.33;19.77;;;;;;;-0.32;90.61;95554.53;2042857;29;20035;-54
2022/12/08 02:08:11;;;;;;;33.70;19.55;;;;;;;-0.39;90.37;95556.31;2041916;29;20052;-54
2022/12/08 02:09:12;;;;;;;35.95;19.85;;;;;;;-0.37;90.63;95549.50;2041187;29;20050;-54
2022/12/08 02:10:17;;;;;;;35.47;19.60;;;;;;;-0.36;90.39;95558.84;2041373;29;20051;-54
2022/12/08 02:11:18;;;;;;;37.13;20.42;;;;;;;-0.38;90.20;95547.78;2041728;29;20158;-54
2022/12/08 02:12:19;;;;;;;34.08;18.85;;;;;;;-0.41;90.62;95554.66;2042290;29;20075;-54
2022/12/08 02:13:20;;;;;;;34.28;20.38;;;;;;;-0.45;90.98;95548.75;2042294;29;20043;-54
2022/12/08 02:14:22;;;;;;;37.75;19.75;;;;;;;-0.42;90.49;95550.44;2041813;29;20046;-55
2022/12/08 02:15:31;;;;;;;36.80;20.17;;;;;;;-0.42;90.91;95551.25;2034181;29;20044;-55
2022/12/08 02:16:48;;;;;;;34.28;20.27;;;;;;;-0.42;90.46;95543.63;2034952;29;20056;-54
2022/12/08 02:18:13;;;;;;;37.63;20.13;;;;;;;-0.45;91.22;95552.13;2042073;29;20047;-54
2022/12/08 02:19:42;;;;;;;38.25;20.05;;;;;;;-0.46;90.55;95544.50;2041592;29;20047;-55
2022/12/08 02:20:55;;;;;;;37.47;18.77;;;;;;;-0.46;90.34;95540.22;2037465;29;20051;-55
2022/12/08 02:22:05;;;;;;;36.78;19.80;;;;;;;-0.48;90.20;95536.03;2041864;29;20055;-54
2022/12/08 02:23:17;;;;;;;35.90;19.05;;;;;;;-0.50;90.25;95537.75;2041980;29;20156;-55
2022/12/08 02:24:53;;;;;;;35.80;19.27;;;;;;;-0.53;91.04;95540.34;2041951;29;20404;-55
2022/12/08 02:26:18;;;;;;;35.60;18.95;;;;;;;-0.60;91.01;95541.25;2011601;29;20469;-54
2022/12/08 02:27:40;;;;;;;33.47;19.17;;;;;;;-0.57;90.97;95543.78;2042406;28;20071;-55
2022/12/08 02:28:55;;;;;;;32.88;17.88;;;;;;;-0.60;91.39;95539.56;2036566;29;20051;-55
2022/12/08 02:30:30;;;;;;;38.33;20.33;;;;;;;-0.58;90.86;95531.91;2036114;29;20040;-54
2022/12/08 02:31:51;;;;;;;34.00;18.77;;;;;;;-0.55;91.38;95536.97;2038575;29;20495;-59
2022/12/08 02:33:14;;;;;;;35.08;18.77;;;;;;;-0.56;91.17;95532.69;2046336;29;20058;-60
2022/12/08 02:34:20;;;;;;;32.67;18.08;;;;;;;-0.58;90.92;95531.91;2046524;29;20043;-60
2022/12/08 02:35:43;;;;;;;33.28;18.58;;;;;;;-0.58;90.91;95527.63;2036795;29;20055;-60
2022/12/08 02:37:05;;;;;;;34.53;18.95;;;;;;;-0.59;91.46;95530.19;2039378;29;20047;-60
2022/12/08 02:38:08;;;;;;;32.42;17.95;;;;;;;-0.60;90.79;95525.97;2044283;29;20124;-60
2022/12/08 02:39:17;;;;;;;34.78;18.08;;;;;;;-0.59;91.16;95528.47;2041357;29;20050;-60
2022/12/08 02:40:22;;;;;;;;;;;;;;;-0.64;90.99;95530.25;2027622;29;20044;-60
2022/12/08 02:41:43;;;;;;;32.33;18.02;;;;;;;-0.66;91.80;95521.78;2027414;29;19915;-60
2022/12/08 02:43:06;;;;;;;35.47;18.15;;;;;;;-0.63;91.09;95523.44;2036129;29;20051;-59
2022/12/08 02:44:18;;;;;;;32.30;18.27;;;;;;;-0.63;90.69;95524.28;2037000;29;20040;-60
2022/12/08 02:45:22;;;;;;;34.80;18.85;;;;;;;-0.63;91.42;95531.09;2034776;29;20060;-59
2022/12/08 02:46:25;;;;;;;34.60;19.20;;;;;;;-0.67;90.99;95520.06;2035091;29;20063;-60
2022/12/08 02:47:27;;;;;;;37.70;18.73;;;;;;;-0.68;91.76;95516.69;2026267;29;20060;-60
2022/12/08 02:48:28;;;;;;;34.72;19.10;;;;;;;-0.67;90.99;95520.06;2034361;29;20440;-60
2022/12/08 02:49:30;;;;;;;38.10;19.83;;;;;;;-0.67;91.25;95514.97;2033671;29;20063;-60
2022/12/08 02:50:31;;;;;;;35.25;20.55;;;;;;;-0.68;91.40;95510.75;2041135;29;20412;-60
2022/12/08 02:51:32;;;;;;;35.88;19.65;;;;;;;-0.67;91.72;95518.38;2042149;29;20040;-60
2022/12/08 02:52:33;;;;;;;36.80;19.38;;;;;;;-0.68;91.26;95516.69;2042221;29;20155;-60
2022/12/08 02:53:34;;;;;;;37.70;20.33;;;;;;;-0.67;90.88;95517.53;2041745;29;20118;-60
2022/12/08 02:54:35;;;;;;;39.53;19.35;;;;;;;-0.71;92.10;95523.53;2042130;29;20055;-60
2022/12/08 02:56:08;;;;;;;32.88;19.58;;;;;;;-0.69;91.88;95517.56;2049354;29;20525;-60
2022/12/08 02:57:30;;;;;;;31.83;17.75;;;;;;;-0.67;91.50;95518.38;2028058;29;20440;-59
2022/12/08 02:58:53;;;;;;;36.08;19.58;;;;;;;-0.70;91.78;95512.47;2031328;29;20403;-59
2022/12/08 03:00:07;;;;;;;32.67;17.50;;;;;;;-0.68;91.25;95518.41;2033336;29;20106;-60
2022/12/08 03:01:08;;;;;;;37.67;20.13;;;;;;;-0.67;91.67;95515.84;2035252;29;20500;-60
2022/12/08 03:02:31;;;;;;;36.83;20.08;;;;;;;-0.65;91.80;95513.25;2041223;29;20043;-60
2022/12/08 03:03:48;;;;;;;33.85;18.23;;;;;;;-0.62;91.81;95514.94;2041751;29;20039;-60
2022/12/08 03:05:10;;;;;;;32.25;17.55;;;;;;;-0.61;91.12;95516.63;2035385;29;20040;-60
2022/12/08 03:06:31;;;;;;;36.40;19.33;;;;;;;-0.62;91.26;95510.66;2041206;29;20044;-61
2022/12/08 03:08:09;;;;;;;34.42;18.48;;;;;;;-0.63;91.96;95508.16;2041169;29;20035;-60
2022/12/08 03:09:48;;;;;;;38.33;19.70;;;;;;;-0.71;91.36;95506.53;2041127;29;20439;-60
2022/12/08 03:11:08;;;;;;;34.28;17.10;;;;;;;-0.69;91.64;95503.97;2041763;29;20043;-60
2022/12/08 03:12:20;;;;;;;38.38;19.33;;;;;;;-0.71;91.46;95509.06;2041269;29;20432;-60
2022/12/08 03:13:28;;;;;;;37.03;20.35;;;;;;;-0.74;91.69;95505.72;2034733;29;20052;-60
2022/12/08 03:14:29;;;;;;;33.35;18.73;;;;;;;-0.73;91.73;95502.28;2026587;29;20052;-61
2022/12/08 03:15:30;;;;;;;38.47;20.48;;;;;;;-0.73;91.83;95497.19;2033713;29;20044;-60
2022/12/08 03:16:33;;;;;;;40.22;20.40;;;;;;;-0.73;92.45;95498.03;2041662;29;20554;-60
2022/12/08 03:17:34;;;;;;;35.47;18.83;;;;;;;-0.69;91.74;95501.41;2041714;29;20484;-59
2022/12/08 03:18:36;;;;;;;36.88;20.00;;;;;;;-0.67;92.07;95502.22;2041726;29;20035;-60
2022/12/08 03:19:37;;;;;;;39.35;19.95;;;;;;;-0.65;92.05;95497.13;2033675;29;20380;-60
2022/12/08 03:20:39;;;;;;;35.65;19.25;;;;;;;-0.61;92.08;95501.34;2026149;29;20161;-59
2022/12/08 03:21:41;;;;;;;36.47;20.15;;;;;;;-0.59;91.47;95490.22;2033776;29;20050;-60
2022/12/08 03:22:42;;;;;;;39.63;20.75;;;;;;;-0.63;91.64;95497.94;2041449;29;20073;-60
2022/12/08 03:23:43;;;;;;;37.58;20.35;;;;;;;-0.77;92.34;95498.94;2025800;29;20064;-60
2022/12/08 03:24:45;;;;;;;37.47;18.90;;;;;;;-0.76;92.78;95498.06;2026014;29;20053;-59
2022/12/08 03:25:53;;;;;;;36.67;20.33;;;;;;;-0.68;92.54;95498.00;2025565;29;20059;-60
2022/12/08 03:27:00;;;;;;;34.95;19.13;;;;;;;-0.63;92.43;95492.84;2034640;29;20428;-59
2022/12/08 03:28:01;;;;;;;37.75;19.17;;;;;;;-0.63;91.50;95496.22;2034602;29;20059;-60
2022/12/08 03:29:02;;;;;;;35.55;19.25;;;;;;;-0.73;92.17;95487.84;2041171;29;20480;-60
2022/12/08 03:30:04;;;;;;;36.97;20.48;;;;;;;-0.76;92.32;95495.53;2049053;29;20050;-60
2022/12/08 03:31:06;;;;;;;37.67;19.90;;;;;;;-0.78;91.74;95492.13;2042018;29;20449;-60
2022/12/08 03:32:19;;;;;;;37.78;20.25;;;;;;;-0.74;91.84;95491.25;2049327;29;20292;-60
2022/12/08 03:33:25;;;;;;;36.42;19.30;;;;;;;-0.68;92.22;95486.06;2047359;29;20047;-60
2022/12/08 03:34:27;;;;;;;32.15;19.17;;;;;;;-0.62;92.14;95489.41;2041067;29;20066;-60
2022/12/08 03:35:32;;;;;;;35.50;20.08;;;;;;;-0.63;91.72;95482.66;2033316;29;20063;-60
2022/12/08 03:36:34;;;;;;;35.42;18.90;;;;;;;-0.67;92.18;95477.59;2026366;29;20057;-59
2022/12/08 03:37:35;;;;;;;36.42;20.27;;;;;;;-0.68;91.67;95483.53;2032969;29;20056;-60
2022/12/08 03:38:40;;;;;;;36.42;19.75;;;;;;;-0.61;91.39;95475.81;2032978;29;20051;-60
2022/12/08 03:39:42;;;;;;;35.40;19.38;;;;;;;-0.67;91.46;95469.94;2041424;29;20036;-60
2022/12/08 03:40:43;;;;;;;37.70;20.08;;;;;;;-0.59;91.88;95486.84;2042064;29;20039;-60
2022/12/08 03:41:44;;;;;;;36.92;20.20;;;;;;;-0.63;91.04;95477.53;2042085;29;20055;-60
2022/12/08 03:42:46;;;;;;;36.83;19.55;;;;;;;-0.63;91.52;95480.09;2042139;29;20047;-59
2022/12/08 03:43:46;;;;;;;34.92;18.30;;;;;;;-0.60;90.90;95483.44;2041919;29;20415;-60
2022/12/08 03:44:48;;;;;;;34.65;19.27;;;;;;;-0.62;91.06;95481.78;2041935;29;20043;-60
2022/12/08 03:45:49;;;;;;;38.50;19.98;;;;;;;-0.61;90.87;95483.47;2042056;29;20051;-60
2022/12/08 03:46:50;;;;;;;35.05;19.85;;;;;;;-0.60;90.77;95478.34;2042053;29;20055;-60
2022/12/08 03:47:51;;;;;;;38.90;20.55;;;;;;;-0.62;91.25;95482.59;2042010;29;20059;-60
2022/12/08 03:48:52;;;;;;;35.10;19.85;;;;;;;-0.64;90.72;95479.25;2042073;29;20032;-59
2022/12/08 03:49:53;;;;;;;44.33;19.13;;;;;;;-0.61;91.63;95475.81;2042035;29;20032;-60
2022/12/08 03:50:54;;;;;;;35.45;20.58;;;;;;;-0.68;91.99;95477.59;2041918;29;20056;-60
2022/12/08 03:51:55;;;;;;;37.92;19.35;;;;;;;-0.74;91.55;95475.97;2041974;29;20480;-60
2022/12/08 03:52:56;;;;;;;36.50;20.55;;;;;;;-0.74;91.92;95478.50;2040904;29;20050;-60
2022/12/08 03:53:57;;;;;;;35.88;19.60;;;;;;;-0.74;92.33;95481.06;2042001;29;20042;-60
2022/12/08 03:54:59;;;;;;;37.63;20.52;;;;;;;-0.82;92.03;95477.75;2041452;29;20593;-60
2022/12/08 03:56:00;;;;;;;36.60;20.15;;;;;;;-0.76;92.35;95476.84;2041817;29;20043;-60
2022/12/08 03:57:01;;;;;;;39.20;21.35;;;;;;;-0.72;92.22;95476.78;2041020;29;20182;-54
2022/12/08 03:58:02;;;;;;;38.00;20.55;;;;;;;-0.71;92.50;95470.81;2040861;29;20111;-55
2022/12/08 03:59:04;;;;;;;41.63;20.83;;;;;;;-0.70;92.19;95475.03;2042206;28;20467;-55
2022/12/08 04:00:06;;;;;;;42.03;21.75;;;;;;;-0.70;91.77;95472.50;2041627;29;20044;-55
2022/12/08 04:01:07;;;;;;;40.55;20.58;;;;;;;-0.72;91.99;95473.41;2041828;29;20050;-55
2022/12/08 04:02:08;;;;;;;36.67;19.88;;;;;;;-0.76;91.47;95474.28;2042070;29;20055;-58
2022/12/08 04:03:09;;;;;;;38.00;20.73;;;;;;;-0.89;92.63;95468.47;2041373;29;20050;-58
2022/12/08 04:04:10;;;;;;;42.20;20.27;;;;;;;-0.89;92.65;95465.94;2041854;29;20066;-58
2022/12/08 04:05:11;;;;;;;38.58;20.83;;;;;;;-0.84;92.81;95474.38;2041636;29;20056;-58
2022/12/08 04:06:13;;;;;;;41.03;21.75;;;;;;;-0.86;92.51;95470.16;2041557;29;20047;-58
2022/12/08 04:07:14;;;;;;;40.00;21.42;;;;;;;-0.86;92.99;95471.00;2041746;29;20050;-58
2022/12/08 04:08:15;;;;;;;39.38;20.17;;;;;;;-0.89;92.71;95461.66;2041125;29;20070;-59
2022/12/08 04:09:16;;;;;;;39.58;20.85;;;;;;;-0.85;92.94;95461.66;2041286;29;20043;-59
2022/12/08 04:10:18;;;;;;;43.67;21.42;;;;;;;-0.85;92.86;95471.84;2041230;29;20428;-58
2022/12/08 04:11:19;;;;;;;40.10;21.40;;;;;;;-0.84;92.09;95463.34;2041733;29;20050;-58
2022/12/08 04:12:20;;;;;;;38.00;20.88;;;;;;;-0.85;92.36;95467.59;2042056;29;20043;-57
2022/12/08 04:13:21;;;;;;;42.10;21.73;;;;;;;-0.92;91.93;95453.22;2041660;29;20055;-57
2022/12/08 04:14:22;;;;;;;42.78;21.63;;;;;;;-0.89;92.04;95460.81;2041676;29;20062;-57
2022/12/08 04:15:23;;;;;;;44.45;22.60;;;;;;;-0.89;91.91;95460.81;2041917;29;20510;-57
2022/12/08 04:16:26;;;;;;;41.15;21.60;;;;;;;-0.91;92.29;95470.19;2041725;29;20055;-57
2022/12/08 04:17:27;;;;;;;40.58;21.80;;;;;;;-0.90;92.30;95467.63;2041139;29;20056;-57
2022/12/08 04:18:28;;;;;;;40.45;19.27;;;;;;;-0.89;91.87;95468.47;2041735;29;20051;-57
2022/12/08 04:19:29;;;;;;;39.33;21.50;;;;;;;-0.88;91.84;95462.53;2042182;29;20056;-57
2022/12/08 04:20:30;;;;;;;40.38;21.42;;;;;;;-0.89;92.15;95471.88;2041503;29;20100;-57
2022/12/08 04:21:32;;;;;;;42.13;21.98;;;;;;;-0.88;92.13;95465.09;2041768;29;20054;-57
2022/12/08 04:22:33;;;;;;;43.97;21.65;;;;;;;-0.94;92.45;95462.59;2041653;29;20058;-57
2022/12/08 04:23:34;;;;;;;37.72;20.63;;;;;;;-0.99;92.31;95465.19;2040322;29;20435;-57
2022/12/08 04:24:35;;;;;;;42.20;21.80;;;;;;;-0.99;92.88;95469.44;2040901;29;20040;-58
2022/12/08 04:25:36;;;;;;;41.40;21.40;;;;;;;-1.00;92.57;95466.03;2041764;29;20051;-57
2022/12/08 04:26:37;;;;;;;43.72;21.38;;;;;;;-0.97;93.04;95470.25;2041667;29;20043;-58
2022/12/08 04:27:38;;;;;;;41.88;21.60;;;;;;;-1.00;93.29;95467.75;2041229;29;20361;-58
2022/12/08 04:28:40;;;;;;;42.85;21.63;;;;;;;-1.00;93.13;95463.50;2041856;29;20042;-58
2022/12/08 04:29:41;;;;;;;37.17;20.52;;;;;;;-1.02;92.56;95467.75;2041340;29;20071;-58
2022/12/08 04:30:42;;;;;;;43.25;21.77;;;;;;;-1.02;92.56;95469.47;2041837;29;20403;-58
2022/12/08 04:31:43;;;;;;;36.85;21.05;;;;;;;-1.05;93.21;95469.50;2041377;29;20055;-58
2022/12/08 04:32:44;;;;;;;43.75;22.50;;;;;;;-1.02;93.09;95469.47;2041018;29;20055;-58
2022/12/08 04:33:45;;;;;;;43.70;22.40;;;;;;;-1.07;93.51;95471.22;2041361;29;20059;-58
2022/12/08 04:34:46;;;;;;;43.88;22.52;;;;;;;-1.09;93.11;95470.41;2041725;29;20384;-58
2022/12/08 04:35:47;;;;;;;37.28;20.38;;;;;;;-1.07;92.60;95468.66;2041687;29;20055;-58
2022/12/08 04:36:48;;;;;;;39.67;20.83;;;;;;;-1.08;92.94;95470.38;2041594;29;20056;-58
2022/12/08 04:37:50;;;;;;;39.90;21.33;;;;;;;-1.09;92.78;95472.97;2041400;29;20412;-58
2022/12/08 04:38:51;;;;;;;39.70;20.25;;;;;;;-1.11;92.96;95466.16;2041376;29;20074;-58
2022/12/08 04:39:52;;;;;;;39.55;21.27;;;;;;;-1.12;93.32;95461.94;2041877;29;20039;-58
2022/12/08 04:40:53;;;;;;;42.40;21.85;;;;;;;-1.14;93.03;95458.56;2041305;29;20043;-58
2022/12/08 04:41:55;;;;;;;36.72;20.27;;;;;;;-1.29;93.40;95445.13;2041887;29;20042;-57
2022/12/08 04:42:56;;;;;;;41.55;21.00;;;;;;;-1.20;93.58;95465.44;2041578;29;20058;-57
2022/12/08 04:43:57;;;;;;;43.90;21.80;;;;;;;-1.20;93.49;95468.81;2041566;29;20028;-57
2022/12/08 04:44:58;;;;;;;41.97;23.35;;;;;;;-1.24;93.47;95462.03;2041773;29;20051;-57
2022/12/08 04:45:59;;;;;;;39.30;20.92;;;;;;;-1.26;92.92;95457.81;2041740;29;20444;-57
2022/12/08 04:47:00;;;;;;;46.17;22.17;;;;;;;-1.35;93.51;95451.97;2041684;29;20043;-57
2022/12/08 04:48:01;;;;;;;39.55;21.92;;;;;;;-1.31;93.07;95462.97;2041628;29;20052;-57
2022/12/08 04:49:02;;;;;;;47.92;24.00;;;;;;;-1.34;92.72;95463.84;2041552;29;20377;-57
2022/12/08 04:50:04;;;;;;;43.92;21.25;;;;;;;-1.38;92.34;95461.34;2041905;29;20043;-57
2022/12/08 04:51:05;;;;;;;40.95;21.35;;;;;;;-1.39;92.71;95467.28;2041271;29;20348;-58
2022/12/08 04:52:06;;;;;;;43.15;22.05;;;;;;;-1.42;93.88;95462.22;2041435;29;20074;-62
2022/12/08 04:53:08;;;;;;;44.45;21.80;;;;;;;-1.44;93.53;95461.41;2041438;29;20063;-62
2022/12/08 04:54:09;;;;;;;43.67;22.73;;;;;;;-1.48;93.80;95455.47;2041194;29;20044;-62
2022/12/08 04:55:10;;;;;;;44.20;21.95;;;;;;;-1.54;93.45;95452.16;2040304;29;20051;-61
2022/12/08 04:56:15;;;;;;;44.38;21.67;;;;;;;-1.55;92.56;95458.97;2041211;29;20492;-62
2022/12/08 04:57:16;;;;;;;43.67;21.45;;;;;;;-1.53;93.37;95471.66;2040974;29;20055;-62
2022/12/08 04:58:18;;;;;;;41.60;21.33;;;;;;;-1.54;93.23;95470.81;2041606;29;20059;-61
2022/12/08 04:59:19;;;;;;;48.13;23.58;;;;;;;-1.56;92.61;95468.28;2040976;29;20058;-61
2022/12/08 05:00:20;;;;;;;48.10;23.85;;;;;;;-1.57;93.02;95466.59;2041429;29;20059;-62
2022/12/08 05:01:21;;;;;;;44.00;22.05;;;;;;;-1.62;93.11;95457.31;2041697;29;20059;-62